sensor_id;sensor_type;location;lat;lon;timestamp;pressure;altitude;pressure_sealevel;temperature;humidity
76866;BME280;66647;52.124;5.416;2023-04-25T00:00:49;101191.50;;;5.35;90.98
76866;BME280;66647;52.124;5.416;2023-04-25T00:03:18;101195.59;;;5.32;91.09
76866;BME280;66647;52.124;5.416;2023-04-25T00:05:48;101199.16;;;5.33;90.90
76866;BME280;66647;52.124;5.416;2023-04-25T00:08:15;101202.94;;;5.32;91.21
76866;BME280;66647;52.124;5.416;2023-04-25T00:10:41;101205.41;;;5.28;90.84
76866;BME280;66647;52.124;5.416;2023-04-25T00:13:08;101211.13;;;5.27;90.90
76866;BME280;66647;52.124;5.416;2023-04-25T00:15:35;101208.13;;;5.28;91.16
76866;BME280;66647;52.124;5.416;2023-04-25T00:18:04;101208.91;;;5.34;91.12
76866;BME280;66647;52.124;5.416;2023-04-25T00:20:31;101212.72;;;5.38;91.29
76866;BME280;66647;52.124;5.416;2023-04-25T00:22:58;101215.16;;;5.39;91.04
76866;BME280;66647;52.124;5.416;2023-04-25T00:25:25;101216.22;;;5.44;91.51
76866;BME280;66647;52.124;5.416;2023-04-25T00:27:51;101217.31;;;5.43;90.73
76866;BME280;66647;52.124;5.416;2023-04-25T00:30:18;101209.44;;;5.41;91.13
76866;BME280;66647;52.124;5.416;2023-04-25T00:32:44;101220.03;;;5.43;90.91
76866;BME280;66647;52.124;5.416;2023-04-25T00:35:13;101217.03;;;5.44;91.36
76866;BME280;66647;52.124;5.416;2023-04-25T00:37:39;101223.28;;;5.45;90.94
76866;BME280;66647;52.124;5.416;2023-04-25T00:40:06;101229.53;;;5.45;90.64
76866;BME280;66647;52.124;5.416;2023-04-25T00:42:35;101227.09;;;5.44;91.47
76866;BME280;66647;52.124;5.416;2023-04-25T00:45:05;101224.38;;;5.44;90.70
76866;BME280;66647;52.124;5.416;2023-04-25T00:47:33;101230.34;;;5.46;90.78
76866;BME280;66647;52.124;5.416;2023-04-25T00:50:00;101224.91;;;5.46;90.85
76866;BME280;66647;52.124;5.416;2023-04-25T00:52:26;101229.53;;;5.45;91.01
76866;BME280;66647;52.124;5.416;2023-04-25T00:54:53;101230.34;;;5.46;91.07
76866;BME280;66647;52.124;5.416;2023-04-25T00:57:20;101222.75;;;5.43;90.54
76866;BME280;66647;52.124;5.416;2023-04-25T00:59:46;101218.41;;;5.42;90.58
76866;BME280;66647;52.124;5.416;2023-04-25T01:02:13;101224.41;;;5.38;90.38
76866;BME280;66647;52.124;5.416;2023-04-25T01:04:40;101212.44;;;5.34;90.68
76866;BME280;66647;52.124;5.416;2023-04-25T01:07:06;101220.91;;;5.33;90.20
76866;BME280;66647;52.124;5.416;2023-04-25T01:09:33;101218.44;;;5.31;90.32
76866;BME280;66647;52.124;5.416;2023-04-25T01:12:00;101218.72;;;5.30;90.56
76866;BME280;66647;52.124;5.416;2023-04-25T01:14:27;101223.63;;;5.28;90.37
76866;BME280;66647;52.124;5.416;2023-04-25T01:16:54;101227.19;;;5.23;90.15
76866;BME280;66647;52.124;5.416;2023-04-25T01:19:21;101231.00;;;5.22;89.95
76866;BME280;66647;52.124;5.416;2023-04-25T01:21:47;101223.66;;;5.23;90.02
76866;BME280;66647;52.124;5.416;2023-04-25T01:24:14;101237.03;;;5.19;90.17
76866;BME280;66647;52.124;5.416;2023-04-25T01:26:42;101238.16;;;5.13;90.19
76866;BME280;66647;52.124;5.416;2023-04-25T01:29:19;101235.47;;;5.03;89.76
76866;BME280;66647;52.124;5.416;2023-04-25T01:31:46;101242.56;;;4.99;90.29
76866;BME280;66647;52.124;5.416;2023-04-25T01:34:13;101241.22;;;4.91;90.04
76866;BME280;66647;52.124;5.416;2023-04-25T01:36:39;101238.56;;;4.81;90.22
76866;BME280;66647;52.124;5.416;2023-04-25T01:39:06;101239.94;;;4.79;90.20
76866;BME280;66647;52.124;5.416;2023-04-25T01:41:33;101253.25;;;4.75;90.19
76866;BME280;66647;52.124;5.416;2023-04-25T01:44:03;101244.84;;;4.71;90.07
76866;BME280;66647;52.124;5.416;2023-04-25T01:46:30;101255.16;;;4.64;90.18
76866;BME280;66647;52.124;5.416;2023-04-25T01:48:57;101248.66;;;4.60;90.44
76866;BME280;66647;52.124;5.416;2023-04-25T01:51:26;101251.69;;;4.54;90.19
76866;BME280;66647;52.124;5.416;2023-04-25T01:53:53;101253.59;;;4.53;90.34
76866;BME280;66647;52.124;5.416;2023-04-25T01:56:21;101258.50;;;4.51;90.50
76866;BME280;66647;52.124;5.416;2023-04-25T01:58:48;101263.91;;;4.51;90.50
76866;BME280;66647;52.124;5.416;2023-04-25T02:01:18;101268.53;;;4.51;90.74
76866;BME280;66647;52.124;5.416;2023-04-25T02:03:54;101264.47;;;4.48;90.40
76866;BME280;66647;52.124;5.416;2023-04-25T02:06:30;101266.38;;;4.43;90.58
76866;BME280;66647;52.124;5.416;2023-04-25T02:08:57;101266.09;;;4.39;90.44
76866;BME280;66647;52.124;5.416;2023-04-25T02:11:24;101269.09;;;4.37;90.76
76866;BME280;66647;52.124;5.416;2023-04-25T02:14:11;101267.47;;;4.36;90.83
76866;BME280;66647;52.124;5.416;2023-04-25T02:16:45;101269.63;;;4.34;90.19
76866;BME280;66647;52.124;5.416;2023-04-25T02:19:12;101269.91;;;4.33;90.23
76866;BME280;66647;52.124;5.416;2023-04-25T02:21:39;101276.41;;;4.32;90.30
76866;BME280;66647;52.124;5.416;2023-04-25T02:24:06;101280.75;;;4.28;90.28
76866;BME280;66647;52.124;5.416;2023-04-25T02:26:33;101275.59;;;4.26;90.57
76866;BME280;66647;52.124;5.416;2023-04-25T02:28:59;101268.81;;;4.24;90.33
76866;BME280;66647;52.124;5.416;2023-04-25T02:31:26;101273.75;;;4.22;90.24
76866;BME280;66647;52.124;5.416;2023-04-25T02:33:52;101274.00;;;4.20;89.92
76866;BME280;66647;52.124;5.416;2023-04-25T02:36:19;101268.59;;;4.15;90.54
76866;BME280;66647;52.124;5.416;2023-04-25T02:38:47;101276.44;;;4.12;90.61
76866;BME280;66647;52.124;5.416;2023-04-25T02:41:14;101274.81;;;4.11;90.28
76866;BME280;66647;52.124;5.416;2023-04-25T02:43:41;101276.19;;;4.08;90.51
76866;BME280;66647;52.124;5.416;2023-04-25T02:46:07;101282.69;;;4.07;90.37
76866;BME280;66647;52.124;5.416;2023-04-25T02:48:34;101282.41;;;4.09;90.65
76866;BME280;66647;52.124;5.416;2023-04-25T02:51:00;101277.00;;;4.09;90.90
76866;BME280;66647;52.124;5.416;2023-04-25T02:53:28;101272.66;;;4.08;90.61
76866;BME280;66647;52.124;5.416;2023-04-25T02:55:55;101278.06;;;4.08;90.54
76866;BME280;66647;52.124;5.416;2023-04-25T02:58:24;101279.69;;;4.09;90.88
76866;BME280;66647;52.124;5.416;2023-04-25T03:00:52;101276.72;;;4.10;91.18
76866;BME280;66647;52.124;5.416;2023-04-25T03:03:19;101282.69;;;4.12;91.03
76866;BME280;66647;52.124;5.416;2023-04-25T03:05:49;101273.47;;;4.13;91.33
76866;BME280;66647;52.124;5.416;2023-04-25T03:08:21;101282.41;;;4.14;90.76
76866;BME280;66647;52.124;5.416;2023-04-25T03:10:48;101276.72;;;4.10;90.93
76866;BME280;66647;52.124;5.416;2023-04-25T03:13:16;101282.16;;;4.10;91.23
76866;BME280;66647;52.124;5.416;2023-04-25T03:15:43;101285.41;;;4.07;90.59
76866;BME280;66647;52.124;5.416;2023-04-25T03:18:09;101285.66;;;4.05;90.66
76866;BME280;66647;52.124;5.416;2023-04-25T03:20:41;101288.09;;;4.02;90.43
76866;BME280;66647;52.124;5.416;2023-04-25T03:23:08;101292.44;;;3.98;90.88
76866;BME280;66647;52.124;5.416;2023-04-25T03:25:35;101292.44;;;3.93;90.59
76866;BME280;66647;52.124;5.416;2023-04-25T03:28:03;101293.78;;;3.90;90.46
76866;BME280;66647;52.124;5.416;2023-04-25T03:30:30;101299.78;;;3.87;90.57
76866;BME280;66647;52.124;5.416;2023-04-25T03:32:57;101302.75;;;3.86;91.09
76866;BME280;66647;52.124;5.416;2023-04-25T03:35:23;101299.25;;;3.85;90.87
76866;BME280;66647;52.124;5.416;2023-04-25T03:37:51;101300.06;;;3.86;91.73
76866;BME280;66647;52.124;5.416;2023-04-25T03:40:23;101304.66;;;3.90;91.55
76866;BME280;66647;52.124;5.416;2023-04-25T03:43:08;101307.63;;;3.94;92.14
76866;BME280;66647;52.124;5.416;2023-04-25T03:45:36;101307.09;;;3.97;91.88
76866;BME280;66647;52.124;5.416;2023-04-25T03:48:03;101319.03;;;3.96;91.76
76866;BME280;66647;52.124;5.416;2023-04-25T03:50:30;101320.66;;;3.97;91.44
76866;BME280;66647;52.124;5.416;2023-04-25T03:52:56;101316.59;;;3.99;91.83
76866;BME280;66647;52.124;5.416;2023-04-25T03:55:28;101319.03;;;4.01;91.96
76866;BME280;66647;52.124;5.416;2023-04-25T03:57:54;101309.53;;;4.03;91.63
76866;BME280;66647;52.124;5.416;2023-04-25T04:00:21;101307.94;;;4.08;91.81
76866;BME280;66647;52.124;5.416;2023-04-25T04:02:51;101308.75;;;4.08;91.27
76866;BME280;66647;52.124;5.416;2023-04-25T04:05:17;101310.38;;;4.09;91.73
76866;BME280;66647;52.124;5.416;2023-04-25T04:07:51;101318.25;;;4.11;91.12
76866;BME280;66647;52.124;5.416;2023-04-25T04:10:17;101326.13;;;4.12;91.79
76866;BME280;66647;52.124;5.416;2023-04-25T04:12:44;101327.75;;;4.13;91.73
76866;BME280;66647;52.124;5.416;2023-04-25T04:15:12;101331.00;;;4.15;91.87
76866;BME280;66647;52.124;5.416;2023-04-25T04:17:39;101329.63;;;4.13;91.38
76866;BME280;66647;52.124;5.416;2023-04-25T04:20:08;101333.16;;;4.13;91.08
76866;BME280;66647;52.124;5.416;2023-04-25T04:22:35;101327.75;;;4.13;91.62
76866;BME280;66647;52.124;5.416;2023-04-25T04:25:07;101330.72;;;4.12;91.40
76866;BME280;66647;52.124;5.416;2023-04-25T04:27:51;101323.13;;;4.14;91.30
76866;BME280;66647;52.124;5.416;2023-04-25T04:30:47;101327.47;;;4.15;91.25
76866;BME280;66647;52.124;5.416;2023-04-25T04:33:13;101337.25;;;4.16;90.29
76866;BME280;66647;52.124;5.416;2023-04-25T04:35:42;101337.78;;;4.18;90.60
76866;BME280;66647;52.124;5.416;2023-04-25T04:38:10;101340.50;;;4.18;91.16
76866;BME280;66647;52.124;5.416;2023-04-25T04:40:37;101342.94;;;4.19;90.97
76866;BME280;66647;52.124;5.416;2023-04-25T04:43:24;101353.00;;;4.19;90.55
76866;BME280;66647;52.124;5.416;2023-04-25T04:46:09;101348.38;;;4.19;90.55
76866;BME280;66647;52.124;5.416;2023-04-25T04:49:09;101351.34;;;4.23;90.22
76866;BME280;66647;52.124;5.416;2023-04-25T04:52:05;101359.22;;;4.24;90.80
76866;BME280;66647;52.124;5.416;2023-04-25T04:54:54;101354.31;;;4.26;89.96
76866;BME280;66647;52.124;5.416;2023-04-25T04:57:44;101360.56;;;4.27;90.15
76866;BME280;66647;52.124;5.416;2023-04-25T05:00:30;101370.88;;;4.30;90.42
76866;BME280;66647;52.124;5.416;2023-04-25T05:03:11;101368.16;;;4.30;90.60
76866;BME280;66647;52.124;5.416;2023-04-25T05:05:50;101381.22;;;4.33;90.24
76866;BME280;66647;52.124;5.416;2023-04-25T05:08:33;101378.78;;;4.36;89.88
76866;BME280;66647;52.124;5.416;2023-04-25T05:11:25;101377.41;;;4.39;89.85
76866;BME280;66647;52.124;5.416;2023-04-25T05:14:12;101385.03;;;4.42;89.93
76866;BME280;66647;52.124;5.416;2023-04-25T05:16:44;101392.09;;;4.43;90.15
76866;BME280;66647;52.124;5.416;2023-04-25T05:19:32;101391.53;;;4.41;89.77
76866;BME280;66647;52.124;5.416;2023-04-25T05:22:15;101399.41;;;4.43;90.16
76866;BME280;66647;52.124;5.416;2023-04-25T05:25:07;101403.50;;;4.45;90.19
76866;BME280;66647;52.124;5.416;2023-04-25T05:27:50;101399.69;;;4.46;89.73
76866;BME280;66647;52.124;5.416;2023-04-25T05:30:44;101401.88;;;4.49;89.90
76866;BME280;66647;52.124;5.416;2023-04-25T05:33:20;101400.50;;;4.52;90.06
76866;BME280;66647;52.124;5.416;2023-04-25T05:35:47;101410.00;;;4.54;89.81
76866;BME280;66647;52.124;5.416;2023-04-25T05:38:14;101407.00;;;4.56;89.44
76866;BME280;66647;52.124;5.416;2023-04-25T05:40:59;101414.59;;;4.59;89.57
76866;BME280;66647;52.124;5.416;2023-04-25T05:43:39;101407.81;;;4.61;89.43
76866;BME280;66647;52.124;5.416;2023-04-25T05:46:20;101410.81;;;4.65;88.71
76866;BME280;66647;52.124;5.416;2023-04-25T05:49:05;101409.44;;;4.72;88.99
76866;BME280;66647;52.124;5.416;2023-04-25T05:51:51;101409.19;;;4.79;88.93
76866;BME280;66647;52.124;5.416;2023-04-25T05:54:36;101420.88;;;4.85;88.89
76866;BME280;66647;52.124;5.416;2023-04-25T05:57:03;101422.72;;;4.89;89.05
76866;BME280;66647;52.124;5.416;2023-04-25T05:59:30;101433.31;;;4.96;88.73
76866;BME280;66647;52.124;5.416;2023-04-25T06:01:57;101431.16;;;5.03;88.93
76866;BME280;66647;52.124;5.416;2023-04-25T06:04:25;101431.97;;;5.09;88.94
76866;BME280;66647;52.124;5.416;2023-04-25T06:06:53;101434.94;;;5.17;88.89
76866;BME280;66647;52.124;5.416;2023-04-25T06:09:21;101446.31;;;5.24;88.03
76866;BME280;66647;52.124;5.416;2023-04-25T06:11:47;101445.22;;;5.30;88.22
76866;BME280;66647;52.124;5.416;2023-04-25T06:14:14;101446.03;;;5.36;88.08
76866;BME280;66647;52.124;5.416;2023-04-25T06:16:46;101447.38;;;5.44;87.01
76866;BME280;66647;52.124;5.416;2023-04-25T06:19:12;101461.50;;;5.51;87.56
76866;BME280;66647;52.124;5.416;2023-04-25T06:21:39;101452.75;;;5.59;87.32
76866;BME280;66647;52.124;5.416;2023-04-25T06:24:07;101450.00;;;5.69;87.06
76866;BME280;66647;52.124;5.416;2023-04-25T06:26:33;101445.63;;;5.73;86.39
76866;BME280;66647;52.124;5.416;2023-04-25T06:29:00;101463.56;;;5.79;85.77
76866;BME280;66647;52.124;5.416;2023-04-25T06:31:27;101451.00;;;5.88;85.85
76866;BME280;66647;52.124;5.416;2023-04-25T06:33:55;101453.63;;;6.14;85.44
76866;BME280;66647;52.124;5.416;2023-04-25T06:36:24;101462.88;;;6.57;84.14
76866;BME280;66647;52.124;5.416;2023-04-25T06:38:58;101463.81;;;6.76;82.77
76866;BME280;66647;52.124;5.416;2023-04-25T06:41:25;101462.56;;;6.63;82.64
76866;BME280;66647;52.124;5.416;2023-04-25T06:43:56;101463.69;;;6.57;82.53
76866;BME280;66647;52.124;5.416;2023-04-25T06:46:27;101460.97;;;6.52;82.52
76866;BME280;66647;52.124;5.416;2023-04-25T06:48:56;101462.63;;;6.53;83.17
76866;BME280;66647;52.124;5.416;2023-04-25T06:51:24;101476.25;;;6.53;82.25
76866;BME280;66647;52.124;5.416;2023-04-25T06:53:52;101477.03;;;6.59;81.46
76866;BME280;66647;52.124;5.416;2023-04-25T06:56:28;101475.09;;;6.59;81.07
76866;BME280;66647;52.124;5.416;2023-04-25T06:59:01;101477.84;;;6.59;81.14
76866;BME280;66647;52.124;5.416;2023-04-25T07:01:31;101476.91;;;6.74;80.99
76866;BME280;66647;52.124;5.416;2023-04-25T07:03:59;101477.91;;;6.83;80.32
76866;BME280;66647;52.124;5.416;2023-04-25T07:06:28;101482.22;;;6.89;79.51
76866;BME280;66647;52.124;5.416;2023-04-25T07:08:55;101488.22;;;6.91;79.51
76866;BME280;66647;52.124;5.416;2023-04-25T07:11:22;101487.34;;;6.96;78.67
76866;BME280;66647;52.124;5.416;2023-04-25T07:13:49;101483.53;;;6.97;79.88
76866;BME280;66647;52.124;5.416;2023-04-25T07:16:22;101493.53;;;7.06;79.15
76866;BME280;66647;52.124;5.416;2023-04-25T07:18:50;101489.41;;;7.14;79.05
76866;BME280;66647;52.124;5.416;2023-04-25T07:21:18;101503.59;;;7.11;77.80
76866;BME280;66647;52.124;5.416;2023-04-25T07:23:45;101506.84;;;7.13;77.86
76866;BME280;66647;52.124;5.416;2023-04-25T07:26:16;101510.28;;;7.24;78.13
76866;BME280;66647;52.124;5.416;2023-04-25T07:29:03;101515.63;;;8.29;76.95
76866;BME280;66647;52.124;5.416;2023-04-25T07:31:29;101511.13;;;8.95;71.34
76866;BME280;66647;52.124;5.416;2023-04-25T07:33:57;101516.53;;;9.00;72.27
76866;BME280;66647;52.124;5.416;2023-04-25T07:36:27;101512.09;;;8.85;75.40
76866;BME280;66647;52.124;5.416;2023-04-25T07:38:54;101512.06;;;8.71;72.23
76866;BME280;66647;52.124;5.416;2023-04-25T07:41:22;101511.63;;;8.64;72.22
76866;BME280;66647;52.124;5.416;2023-04-25T07:43:49;101515.53;;;8.58;70.44
76866;BME280;66647;52.124;5.416;2023-04-25T07:46:16;101510.06;;;8.58;70.61
76866;BME280;66647;52.124;5.416;2023-04-25T07:48:42;101517.66;;;8.61;72.45
76866;BME280;66647;52.124;5.416;2023-04-25T07:51:09;101525.81;;;8.66;73.32
76866;BME280;66647;52.124;5.416;2023-04-25T07:53:36;101530.75;;;8.64;69.74
76866;BME280;66647;52.124;5.416;2023-04-25T07:56:08;101537.84;;;8.65;70.44
76866;BME280;66647;52.124;5.416;2023-04-25T07:58:38;101533.47;;;8.64;68.57
76866;BME280;66647;52.124;5.416;2023-04-25T08:01:10;101538.03;;;8.50;68.74
76866;BME280;66647;52.124;5.416;2023-04-25T08:04:00;101542.94;;;8.53;69.44
76866;BME280;66647;52.124;5.416;2023-04-25T08:07:05;101547.94;;;9.02;67.87
76866;BME280;66647;52.124;5.416;2023-04-25T08:09:43;101545.66;;;9.09;67.74
76866;BME280;66647;52.124;5.416;2023-04-25T08:12:18;101554.84;;;9.14;66.42
76866;BME280;66647;52.124;5.416;2023-04-25T08:14:48;101557.06;;;9.30;67.42
76866;BME280;66647;52.124;5.416;2023-04-25T08:17:15;101556.09;;;9.54;63.37
76866;BME280;66647;52.124;5.416;2023-04-25T08:19:42;101552.84;;;9.52;64.39
76866;BME280;66647;52.124;5.416;2023-04-25T08:22:16;101566.28;;;9.94;63.55
76866;BME280;66647;52.124;5.416;2023-04-25T08:24:51;101572.19;;;10.01;60.92
76866;BME280;66647;52.124;5.416;2023-04-25T08:27:18;101589.72;;;9.40;64.71
76866;BME280;66647;52.124;5.416;2023-04-25T08:29:45;101588.22;;;8.78;68.47
76866;BME280;66647;52.124;5.416;2023-04-25T08:32:12;101595.50;;;8.45;68.78
76866;BME280;66647;52.124;5.416;2023-04-25T08:34:46;101602.25;;;8.29;70.16
76866;BME280;66647;52.124;5.416;2023-04-25T08:37:15;101604.56;;;8.17;69.52
76866;BME280;66647;52.124;5.416;2023-04-25T08:39:48;101592.25;;;8.19;69.66
76866;BME280;66647;52.124;5.416;2023-04-25T08:42:31;101601.69;;;8.32;67.73
76866;BME280;66647;52.124;5.416;2023-04-25T08:44:58;101598.56;;;8.44;68.18
76866;BME280;66647;52.124;5.416;2023-04-25T08:47:33;101601.09;;;8.59;68.41
76866;BME280;66647;52.124;5.416;2023-04-25T08:50:04;101607.69;;;8.77;68.29
76866;BME280;66647;52.124;5.416;2023-04-25T08:52:44;101603.16;;;9.04;65.36
76866;BME280;66647;52.124;5.416;2023-04-25T08:55:15;101608.44;;;9.66;65.03
76866;BME280;66647;52.124;5.416;2023-04-25T08:57:42;101612.38;;;10.47;63.64
76866;BME280;66647;52.124;5.416;2023-04-25T09:00:12;101610.78;;;11.18;62.30
76866;BME280;66647;52.124;5.416;2023-04-25T09:02:45;101618.00;;;11.81;60.87
76866;BME280;66647;52.124;5.416;2023-04-25T09:05:13;101618.50;;;11.83;58.76
76866;BME280;66647;52.124;5.416;2023-04-25T09:07:41;101625.94;;;12.14;58.40
76866;BME280;66647;52.124;5.416;2023-04-25T09:10:08;101625.13;;;12.61;55.99
76866;BME280;66647;52.124;5.416;2023-04-25T09:12:38;101632.28;;;12.79;54.75
76866;BME280;66647;52.124;5.416;2023-04-25T09:15:09;101624.72;;;13.20;54.81
76866;BME280;66647;52.124;5.416;2023-04-25T09:18:05;101621.72;;;13.68;53.36
76866;BME280;66647;52.124;5.416;2023-04-25T09:20:42;101630.84;;;13.60;52.18
76866;BME280;66647;52.124;5.416;2023-04-25T09:23:19;101635.75;;;13.20;50.59
76866;BME280;66647;52.124;5.416;2023-04-25T09:25:49;101642.13;;;12.63;50.97
76866;BME280;66647;52.124;5.416;2023-04-25T09:28:16;101643.50;;;12.04;52.14
76866;BME280;66647;52.124;5.416;2023-04-25T09:30:49;101643.81;;;11.49;54.17
76866;BME280;66647;52.124;5.416;2023-04-25T09:33:19;101652.47;;;11.20;54.91
76866;BME280;66647;52.124;5.416;2023-04-25T09:35:49;101656.81;;;10.99;55.60
76866;BME280;66647;52.124;5.416;2023-04-25T09:38:45;101655.28;;;10.93;56.41
76866;BME280;66647;52.124;5.416;2023-04-25T09:41:25;101657.97;;;11.20;57.22
76866;BME280;66647;52.124;5.416;2023-04-25T09:43:57;101658.28;;;11.41;56.39
76866;BME280;66647;52.124;5.416;2023-04-25T09:46:34;101671.16;;;10.96;56.51
76866;BME280;66647;52.124;5.416;2023-04-25T09:49:09;101680.03;;;10.38;58.49
76866;BME280;66647;52.124;5.416;2023-04-25T09:51:59;101695.19;;;10.03;59.61
76866;BME280;66647;52.124;5.416;2023-04-25T09:54:41;101699.25;;;9.73;61.01
76866;BME280;66647;52.124;5.416;2023-04-25T09:57:23;101702.66;;;9.65;61.38
76866;BME280;66647;52.124;5.416;2023-04-25T09:59:55;101708.47;;;9.77;61.88
76866;BME280;66647;52.124;5.416;2023-04-25T10:02:25;101709.34;;;9.91;61.22
76866;BME280;66647;52.124;5.416;2023-04-25T10:04:56;101711.09;;;10.01;61.53
76866;BME280;66647;52.124;5.416;2023-04-25T10:07:36;101710.69;;;10.26;60.57
76866;BME280;66647;52.124;5.416;2023-04-25T10:10:08;101708.25;;;10.52;60.45
76866;BME280;66647;52.124;5.416;2023-04-25T10:12:37;101703.41;;;11.13;59.94
76866;BME280;66647;52.124;5.416;2023-04-25T10:15:08;101699.31;;;12.04;57.30
76866;BME280;66647;52.124;5.416;2023-04-25T10:17:35;101700.09;;;12.36;56.03
76866;BME280;66647;52.124;5.416;2023-04-25T10:20:02;101706.06;;;12.60;55.52
76866;BME280;66647;52.124;5.416;2023-04-25T10:22:39;101696.78;;;13.13;54.00
76866;BME280;66647;52.124;5.416;2023-04-25T10:25:08;101694.06;;;13.39;49.12
76866;BME280;66647;52.124;5.416;2023-04-25T10:27:35;101698.38;;;13.05;49.11
76866;BME280;66647;52.124;5.416;2023-04-25T10:30:07;101689.66;;;13.12;49.97
76866;BME280;66647;52.124;5.416;2023-04-25T10:32:37;101693.09;;;13.35;49.39
76866;BME280;66647;52.124;5.416;2023-04-25T10:35:17;101695.19;;;13.47;51.95
76866;BME280;66647;52.124;5.416;2023-04-25T10:37:57;101692.94;;;13.57;49.50
76866;BME280;66647;52.124;5.416;2023-04-25T10:40:25;101699.72;;;13.42;48.38
76866;BME280;66647;52.124;5.416;2023-04-25T10:42:53;101701.03;;;13.54;47.17
76866;BME280;66647;52.124;5.416;2023-04-25T10:45:22;101705.25;;;13.60;47.71
76866;BME280;66647;52.124;5.416;2023-04-25T10:47:49;101697.13;;;13.72;48.91
76866;BME280;66647;52.124;5.416;2023-04-25T10:50:16;101686.66;;;14.21;47.16
76866;BME280;66647;52.124;5.416;2023-04-25T10:52:43;101706.69;;;14.47;47.05
76866;BME280;66647;52.124;5.416;2023-04-25T10:55:10;101689.09;;;14.90;46.85
76866;BME280;66647;52.124;5.416;2023-04-25T10:57:45;101691.22;;;15.34;45.22
76866;BME280;66647;52.124;5.416;2023-04-25T11:00:14;101697.81;;;15.84;52.63
76866;BME280;66647;52.124;5.416;2023-04-25T11:02:43;101690.47;;;16.00;43.27
76866;BME280;66647;52.124;5.416;2023-04-25T11:05:43;101697.81;;;15.84;45.24
76866;BME280;66647;52.124;5.416;2023-04-25T11:08:47;101697.53;;;14.93;45.54
76866;BME280;66647;52.124;5.416;2023-04-25T11:11:17;101696.97;;;14.41;46.61
76866;BME280;66647;52.124;5.416;2023-04-25T11:13:44;101724.19;;;13.87;48.91
76866;BME280;66647;52.124;5.416;2023-04-25T11:16:11;101731.28;;;13.10;51.67
76866;BME280;66647;52.124;5.416;2023-04-25T11:18:48;101732.22;;;12.49;53.63
76866;BME280;66647;52.124;5.416;2023-04-25T11:21:15;101732.88;;;12.55;54.15
76866;BME280;66647;52.124;5.416;2023-04-25T11:23:45;101750.16;;;12.16;55.87
76866;BME280;66647;52.124;5.416;2023-04-25T11:26:13;101743.66;;;11.67;57.72
76866;BME280;66647;52.124;5.416;2023-04-25T11:28:40;101749.16;;;11.31;56.92
76866;BME280;66647;52.124;5.416;2023-04-25T11:31:06;101752.63;;;11.23;58.14
76866;BME280;66647;52.124;5.416;2023-04-25T11:33:33;101754.19;;;10.88;57.67
76866;BME280;66647;52.124;5.416;2023-04-25T11:36:00;101748.78;;;10.83;58.05
76866;BME280;66647;52.124;5.416;2023-04-25T11:38:26;101750.63;;;10.87;58.30
76866;BME280;66647;52.124;5.416;2023-04-25T11:40:55;101748.69;;;10.88;58.45
76866;BME280;66647;52.124;5.416;2023-04-25T11:43:22;101757.22;;;11.00;58.90
76866;BME280;66647;52.124;5.416;2023-04-25T11:45:49;101759.84;;;11.05;57.57
76866;BME280;66647;52.124;5.416;2023-04-25T11:48:17;101753.75;;;11.08;56.63
76866;BME280;66647;52.124;5.416;2023-04-25T11:50:44;101757.72;;;11.16;57.00
76866;BME280;66647;52.124;5.416;2023-04-25T11:53:11;101761.88;;;11.63;54.44
76866;BME280;66647;52.124;5.416;2023-04-25T11:55:39;101759.16;;;12.07;54.13
76866;BME280;66647;52.124;5.416;2023-04-25T11:58:06;101749.09;;;12.56;53.06
76866;BME280;66647;52.124;5.416;2023-04-25T12:00:33;101758.38;;;13.17;51.78
76866;BME280;66647;52.124;5.416;2023-04-25T12:02:59;101741.84;;;13.34;48.06
76866;BME280;66647;52.124;5.416;2023-04-25T12:05:29;101740.44;;;13.54;49.69
76866;BME280;66647;52.124;5.416;2023-04-25T12:08:15;101747.22;;;13.65;49.79
76866;BME280;66647;52.124;5.416;2023-04-25T12:10:43;101741.09;;;13.60;48.70
76866;BME280;66647;52.124;5.416;2023-04-25T12:13:24;101754.09;;;12.94;50.38
76866;BME280;66647;52.124;5.416;2023-04-25T12:15:53;101754.66;;;12.42;49.10
76866;BME280;66647;52.124;5.416;2023-04-25T12:18:24;101757.03;;;12.04;50.64
76866;BME280;66647;52.124;5.416;2023-04-25T12:20:53;101764.13;;;11.97;51.59
76866;BME280;66647;52.124;5.416;2023-04-25T12:23:28;101763.59;;;12.17;51.61
76866;BME280;66647;52.124;5.416;2023-04-25T12:25:55;101767.47;;;12.47;50.44
76866;BME280;66647;52.124;5.416;2023-04-25T12:28:24;101768.97;;;12.53;49.97
76866;BME280;66647;52.124;5.416;2023-04-25T12:33:28;101774.06;;;12.37;50.09
76866;BME280;66647;52.124;5.416;2023-04-25T12:35:55;101780.03;;;12.31;49.41
76866;BME280;66647;52.124;5.416;2023-04-25T12:38:27;101774.78;;;12.21;48.85
76866;BME280;66647;52.124;5.416;2023-04-25T12:40:55;101776.03;;;12.15;52.18
76866;BME280;66647;52.124;5.416;2023-04-25T12:43:22;101774.53;;;12.31;48.42
76866;BME280;66647;52.124;5.416;2023-04-25T12:45:50;101771.16;;;12.34;48.66
76866;BME280;66647;52.124;5.416;2023-04-25T12:48:17;101773.91;;;12.34;49.77
76866;BME280;66647;52.124;5.416;2023-04-25T12:50:44;101775.22;;;12.76;48.51
76866;BME280;66647;52.124;5.416;2023-04-25T12:53:17;101781.84;;;12.75;48.81
76866;BME280;66647;52.124;5.416;2023-04-25T12:55:45;101767.00;;;12.85;49.71
76866;BME280;66647;52.124;5.416;2023-04-25T12:58:15;101766.13;;;13.15;48.78
76866;BME280;66647;52.124;5.416;2023-04-25T13:00:42;101768.13;;;13.23;49.21
76866;BME280;66647;52.124;5.416;2023-04-25T13:03:09;101763.09;;;13.42;47.22
76866;BME280;66647;52.124;5.416;2023-04-25T13:05:38;101769.28;;;13.48;47.41
76866;BME280;66647;52.124;5.416;2023-04-25T13:08:05;101769.25;;;13.31;44.81
76866;BME280;66647;52.124;5.416;2023-04-25T13:10:31;101762.53;;;13.06;44.93
76866;BME280;66647;52.124;5.416;2023-04-25T13:13:00;101772.16;;;12.77;46.07
76866;BME280;66647;52.124;5.416;2023-04-25T13:15:27;101774.38;;;12.36;46.64
76866;BME280;66647;52.124;5.416;2023-04-25T13:17:53;101779.97;;;12.22;49.42
76866;BME280;66647;52.124;5.416;2023-04-25T13:20:20;101779.03;;;12.04;49.28